Tiempo atmosférico en la estación meteorológica de Santibañez De Vidriales, Zamora (737 m.)



Fecha
DESCASC
Temp. máxima en grados centígrados (hora)
DESCASC
Temp. mínima en grados centígrados (hora)
DESCASC
Temp. media en grados centígrados
DESCASC
Racha de viento máxima en m/sg (hora)
DESCASC
Velocidad máxima media en intervalos de 10 minutos(hora)
DESCASC
Precipitaciones diarias en mm
DESCASC
Precipitaciones de 00:00 a 06:00 en mm
DESCASC
Precipitaciones de 06:00 a 12:00 en mm
DESCASC
Precipitaciones de 12:00 a 18:00 en mm
DESCASC
Precipitaciones de 18:00 a 24:00 en mm
DESCASC
08-12-2019 8.2 (16:40) 0.3 (23:59) 4.2 2.22 (14:00) 1.67 (23:59) 1.6 0.2 0.8 0.6 0
07-12-2019 13.1 (15:30) -1.9 (08:20) 5.6 4.44 (16:00) 3.06 (15:50) 0 0 0 0 0
06-12-2019 11.5 (15:40) -1.5 (08:10) 5 3.61 (03:40) 2.78 (03:40) 0 0 0 0 0
05-12-2019 10.6 (14:50) -2.1 (-00:0) 4.3 9.72 (14:50) 5.83 (14:50) 0 0 0 0 0
04-12-2019 10.4 (14:20) -1.6 (05:30) 4.4 6.39 (13:00) 4.44 (13:00) 0 0 0 0 0
03-12-2019 6.7 (16:00) -3.7 (-00:0) 1.5 6.67 (15:40) 4.44 (15:30) 0 0 0 0 0
02-12-2019 11.2 (14:40) -0.1 (00:00) 5.5 12.5 (15:10) 8.61 (15:10) 0 0 0 0 0
01-12-2019 8.5 (15:50) 4.4 (00:00) 6.5 9.72 (13:40) 6.11 (13:40) 2.8 1.6 1 0 0.2
30-11-2019 12.4 (10:40) 4.2 (00:00) 8.3 13.89 (12:40) 8.33 (12:40) 3.6 1.4 1.6 0.6 0
29-11-2019 15.1 (15:40) 5.9 (00:00) 10.5 6.67 (15:30) 4.72 (16:00) 1 0 0 0 1
28-11-2019 13.3 (13:40) 8.5 (01:50) 10.9 15.83 (15:50) 10 (08:20) 0.4 0 0 0.2 0.2
27-11-2019 10.6 (15:40) 7.3 (00:00) 9 13.61 (04:00) 8.33 (14:20) 1 0 0.2 0.8 0
26-11-2019 15 (14:20) 8.2 (00:00) 11.6 19.72 (16:40) 11.94 (17:00) 2.6 0 1.4 0.2 1
25-11-2019 13.4 (13:20) 7.5 (00:00) 10.4 11.39 (14:10) 7.22 (13:30) 0.2 0.2 0 0 0
24-11-2019 8.7 (15:50) -0.1 (00:00) 4.3 9.17 (14:40) 6.39 (13:00) 2.8 0 0 0 2.8
23-11-2019 10.3 (14:30) 4.7 (00:00) 7.5 14.44 (14:40) 9.17 (14:40) 0.2 0 0.2 0 0
22-11-2019 12.6 (13:50) 2.9 (00:00) 7.8 16.39 (14:00) 10.56 (14:00) 8.4 1.6 4.2 0.2 2.4
21-11-2019 10.5 (15:30) 3.4 (00:00) 7 9.72 (14:00) 5.83 (14:00) 1.8 0.2 1.6 0 0
20-11-2019 6.6 (15:10) 4.3 (23:59) 5.5 7.78 (17:00) 4.72 (13:50) 4.6 0.4 2.4 0.8 1
19-11-2019 8 (17:10) -3.6 (-00:0) 2.2 5.28 (15:00) 3.61 (15:10) 0.2 0 0 0 0.2
18-11-2019 11.3 (14:00) 0.1 (00:00) 5.7 10.28 (11:40) 7.5 (11:40) 0 0 0 0 0
17-11-2019 11.6 (14:50) 1.9 (00:00) 6.8 11.67 (15:20) 8.06 (17:00) 0.2 0 0.2 0 0
16-11-2019 9.5 (15:50) -2 (-00:0) 3.8 10 (13:10) 7.22 (13:10) 0 0 0 0 0
15-11-2019 7.5 (14:00) -0.2 (00:00) 3.6 11.39 (13:50) 8.06 (13:40) 0.2 0 0.2 0 0
14-11-2019 7.6 (00:00) 1.5 (00:00) 4.5 16.11 (13:00) 9.44 (14:20) 7.4 0 0 3.4 4
13-11-2019 15.6 (15:10) 5.9 (00:00) 10.8 11.94 (23:20) 7.5 (23:20) 4.4 4.4 0 0 0
12-11-2019 10.9 (15:00) 3.4 (00:00) 7.1 11.94 (17:50) 7.22 (17:50) 2.8 0 0 0 2.8

Gráficas

Temp. máximas Temp. mínimas Temp. medias Precipitaciones Rachas de viento máximas Velocidades máximas media en intervalos de 10 minutos

Datos horarios

Fecha y hora oficial Temperatura (ºC) Velocidad del viento (km/h) Dirección del viento Racha (km/h) Dirección de racha Precipitación (mm) Presión (hPa) Tendencia (hPa) Humedad (%)
2019-12-11 23:00:00 -- -- -- -- -- -- -- -- --
2019-12-11 22:00:00 4.6 9 Sudoeste 18 Sudoeste 0 -- -- 83
2019-12-11 21:00:00 5 10 Oeste 21 Oeste 0 -- -- 83
2019-12-11 20:00:00 5.3 14 Sudoeste 22 Sudoeste 0 -- -- 79
2019-12-11 19:00:00 5.7 15 Sudoeste 22 Sudoeste 0 -- -- 74
2019-12-11 18:00:00 6.7 10 Sudoeste 22 Sudoeste 0 -- -- 68
2019-12-11 17:00:00 8.3 14 Oeste 28 Oeste 0 -- -- 58
2019-12-11 16:00:00 7.4 14 Oeste 43 Noroeste 0 -- -- 59
2019-12-11 15:00:00 8.9 25 Noroeste 44 Oeste 0 -- -- 52
2019-12-11 14:00:00 8.6 29 Noroeste 44 Noroeste 0 -- -- 52
2019-12-11 13:00:00 8.6 22 Noroeste 33 Noroeste 0 -- -- 55
2019-12-11 12:00:00 7.7 15 Oeste 42 Noroeste 0 -- -- 58
2019-12-11 11:00:00 6.9 11 Noroeste 33 Noroeste 0 -- -- 67
2019-12-11 10:00:00 6 21 Norte 37 Norte 0 -- -- 79
2019-12-11 09:00:00 3.7 10 Noroeste 17 Noroeste 0.2 -- -- 99
2019-12-11 08:00:00 2 5 Sudoeste 7 Sur 0 -- -- 99
2019-12-11 07:00:00 2.2 4 Nordeste 14 Nordeste 0 -- -- 99
2019-12-11 06:00:00 1.4 2 Sudeste 9 Este 0.2 -- -- 99
2019-12-11 05:00:00 0.4 5 Nordeste 8 Nordeste 0 -- -- 99
2019-12-11 04:00:00 -0.4 2 Sudeste 6 Este 0 -- -- 99
2019-12-11 03:00:00 -0.6 0 Calma 3 Este 0 -- -- 98
2019-12-11 02:00:00 -0.1 0 Calma 5 Este 0 -- -- 98
2019-12-11 01:00:00 0.3 2 Nordeste 5 Nordeste 0 -- -- 98
2019-12-11 00:00:00 0.4 0 Calma 5 Nordeste 0 -- -- 98
2019-12-10 23:00:00 0.2 0 Calma 10 Sudoeste 0 -- -- 97
2019-12-10 22:00:00 0.3 0 Calma 5 Oeste 0 -- -- 96
2019-12-10 21:00:00 1.4 4 Noroeste 6 Noroeste 0 -- -- 95
2019-12-10 20:00:00 2.7 0 Calma 3 Nordeste 0 -- -- 95
2019-12-10 19:00:00 3.2 2 Nordeste 6 Este 0 -- -- 93
2019-12-10 18:00:00 4 4 Este 10 Este 0 -- -- 92
2019-12-10 17:00:00 5 6 Este 14 Este 0 -- -- 89
2019-12-10 16:00:00 5.9 9 Este 14 Este 0 -- -- 86
2019-12-10 15:00:00 5.8 8 Este 11 Este 0 -- -- 85
2019-12-10 14:00:00 5 6 Este 9 Este 0 -- -- 88
2019-12-10 13:00:00 2.7 3 Este 5 Este 0 -- -- 92
2019-12-10 12:00:00 1.2 3 Sudeste 5 Este 0 -- -- 94
2019-12-10 11:00:00 -0.3 0 Calma 4 Sudeste 0.2 -- -- 95
2019-12-10 10:00:00 -1.4 0 Calma 4 Sudoeste 0 -- -- 96
2019-12-10 09:00:00 -3.1 0 Calma 2 Oeste 0 -- -- 96
2019-12-10 08:00:00 -3.7 0 Calma 3 Noroeste 0 -- -- 96
2019-12-10 07:00:00 -3.7 2 Sudoeste 5 Noroeste 0 -- -- 96
2019-12-10 06:00:00 -3.3 0 Calma 3 Noroeste 0 -- -- 96
2019-12-10 05:00:00 -3.1 0 Calma 2 Oeste 0 -- -- 95
2019-12-10 04:00:00 -2.7 0 Calma 2 Oeste 0 -- -- 96
2019-12-10 03:00:00 -2.7 0 Calma 5 Oeste 0 -- -- 95
2019-12-10 02:00:00 -2.2 3 Sur 5 Noroeste 0 -- -- 95
2019-12-10 01:00:00 -1.9 3 Noroeste 11 Noroeste 0 -- -- 94
2019-12-10 00:00:00 -1.4 4 Noroeste 6 Noroeste 0 -- -- 94
2019-12-09 23:00:00 -0.4 0 Calma 3 Noroeste 0 -- -- 93
2019-12-09 22:00:00 -0.1 2 Noroeste 9 Oeste 0 -- -- 93
2019-12-09 21:00:00 1 2 Noroeste 8 Sudeste 0 -- -- 94
2019-12-09 20:00:00 2.2 2 Noroeste 8 Sudoeste 0 -- -- 92
2019-12-09 19:00:00 3.9 3 Sudoeste 6 Sur 0 -- -- 90
2019-12-09 18:00:00 6.3 0 Calma 10 Sudeste 0 -- -- 86
2019-12-09 17:00:00 8.4 7 Este 12 Este 0 -- -- 80
2019-12-09 16:00:00 10.1 6 Noroeste 14 Noroeste 0 -- -- 63
2019-12-09 15:00:00 9.5 5 Noroeste 10 Noroeste 0 -- -- 68
2019-12-09 14:00:00 7.9 0 Calma 12 Sudeste 0 -- -- 78
2019-12-09 13:00:00 5.4 4 Noroeste 10 Sudeste 0 -- -- 93
2019-12-09 12:00:00 1.4 0 Calma 6 Este 0 -- -- 98
2019-12-09 11:00:00 -0.1 3 Nordeste 4 Nordeste 0 -- -- 98
2019-12-09 10:00:00 -0.7 0 Calma 4 Nordeste 0 -- -- 98
2019-12-09 09:00:00 -1.1 0 Calma 3 Nordeste 0 -- -- 98
2019-12-09 08:00:00 -1.2 0 Calma 5 Nordeste 0 -- -- 97
2019-12-09 07:00:00 -1.2 3 Nordeste 5 Nordeste 0 -- -- 98
2019-12-09 06:00:00 -1.2 2 Nordeste 5 Nordeste 0 -- -- 98
2019-12-09 05:00:00 -0.9 0 Calma 6 Nordeste 0 -- -- 98
2019-12-09 04:00:00 -1 4 Nordeste 6 Nordeste 0 -- -- 97
2019-12-09 03:00:00 -1.1 0 Calma 6 Sudoeste 0 -- -- 98
2019-12-09 02:00:00 -0.1 4 Sudeste 14 Sudoeste 0 -- -- 99
2019-12-09 01:00:00 0.8 5 Sur 9 Sur 0.2 -- -- 98
2019-12-09 00:00:00 0.3 6 Nordeste 8 Nordeste 0 -- -- 97
2019-12-08 23:00:00 0.4 0 Calma 8 Sudoeste 0 -- -- 97
2019-12-08 22:00:00 2 4 Sudeste 7 Sudoeste 0 -- -- 99
2019-12-08 21:00:00 3.2 0 Calma 7 Oeste 0 -- -- 97
2019-12-08 20:00:00 5.2 0 Calma 5 Sudoeste 0 -- -- 97
2019-12-08 19:00:00 6.7 0 Calma 6 Sudoeste 0 -- -- 97
2019-12-08 18:00:00 7.7 2 Norte 4 Norte 0 -- -- 96
2019-12-08 17:00:00 8 3 Este 8 Nordeste 0 -- -- 96
2019-12-08 16:00:00 7.9 4 Sudoeste 6 Sudoeste 0 -- -- 97
2019-12-08 15:00:00 7.3 3 Este 7 Sudeste 0 -- -- 97
2019-12-08 14:00:00 6.7 5 Sudeste 8 Sudeste 0 -- -- 97
2019-12-08 13:00:00 5.7 0 Calma 6 Sudeste 0.6 -- -- 98
2019-12-08 12:00:00 4.9 2 Sudeste 8 Norte 0.6 -- -- 98
2019-12-08 11:00:00 4.1 0 Calma 3 Este 0 -- -- 98
2019-12-08 10:00:00 3.4 0 Calma 4 Sur 0.2 -- -- 98
2019-12-08 09:00:00 3 0 Calma 5 Sur 0 -- -- 99
2019-12-08 08:00:00 2.7 3 Sudeste 5 Sudeste 0 -- -- 99
2019-12-08 07:00:00 2.4 0 Calma 4 Noroeste 0 -- -- 99
2019-12-08 06:00:00 2 0 Calma 2 Sudeste 0 -- -- 99
2019-12-08 05:00:00 1.8 0 Calma 4 Noroeste 0 -- -- 99
2019-12-08 04:00:00 1.6 0 Calma 5 Este 0 -- -- 98
2019-12-08 03:00:00 1.5 3 Nordeste 6 Noroeste 0 -- -- 98
2019-12-08 02:00:00 1.7 2 Noroeste 7 Noroeste 0.2 -- -- 98
2019-12-08 01:00:00 1.5 0 Calma 4 Noroeste 0 -- -- 98
2019-12-08 00:00:00 2 0 Calma 5 Noroeste 0 -- -- 97
2019-12-07 23:00:00 2.6 2 Noroeste 5 Noroeste 0 -- -- 97
2019-12-07 22:00:00 3.2 0 Calma 2 Sur 0 -- -- 97
2019-12-07 21:00:00 3.6 0 Calma 5 Sudeste 0 -- -- 97
2019-12-07 20:00:00 4.2 2 Sudeste 10 Sudeste 0 -- -- 96
2019-12-07 19:00:00 4.4 6 Sudeste 14 Sudeste 0 -- -- 94
2019-12-07 18:00:00 7.5 7 Este 16 Sudeste 0 -- -- 85
2019-12-07 17:00:00 10.4 8 Este 15 Sudeste 0 -- -- 77
2019-12-07 16:00:00 12.2 11 Sudeste 16 Sudeste 0 -- -- 70
2019-12-07 15:00:00 12.5 8 Sur 15 Sudeste 0 -- -- 68
2019-12-07 14:00:00 10.7 5 Sudeste 11 Este 0 -- -- 75
2019-12-07 13:00:00 8.2 3 Sudeste 6 Sudeste 0 -- -- 80
2019-12-07 12:00:00 6.2 4 Sudeste 7 Sudeste 0 -- -- 84
2019-12-07 11:00:00 3.2 0 Calma 2 Sudoeste 0 -- -- 97
2019-12-07 10:00:00 -0.2 0 Calma 4 Oeste 0 -- -- 97
2019-12-07 09:00:00 -1.4 2 Este 4 Nordeste 0 -- -- 97
2019-12-07 08:00:00 -1.6 2 Sudoeste 5 Sur 0 -- -- 96
2019-12-07 07:00:00 -1.6 0 Calma 5 Sudoeste 0 -- -- 96
2019-12-07 06:00:00 -1.2 3 Sudoeste 5 Sur 0 -- -- 96
2019-12-07 05:00:00 -0.7 2 Oeste 5 Noroeste 0 -- -- 96
2019-12-07 04:00:00 -1.2 3 Nordeste 4 Norte 0 -- -- 95
2019-12-07 03:00:00 -0.4 2 Norte 5 Sudoeste 0 -- -- 94
2019-12-07 02:00:00 0.6 3 Sudoeste 8 Oeste 0 -- -- 95
2019-12-07 01:00:00 0.1 0 Calma 7 Noroeste 0 -- -- 94
2019-12-07 00:00:00 0.9 5 Noroeste 8 Noroeste 0 -- -- 93
2019-12-06 23:00:00 2.1 0 Calma 5 Noroeste 0 -- -- 92
2019-12-06 22:00:00 3.1 3 Noroeste 6 Noroeste 0 -- -- 92
2019-12-06 21:00:00 4.2 4 Noroeste 5 Noroeste 0 -- -- 91
2019-12-06 20:00:00 5.5 0 Calma -- -- 0 -- -- 85
2019-12-06 19:00:00 6.7 0 Calma 4 Sudeste 0 -- -- 83
2019-12-06 18:00:00 8.9 3 Sudeste 6 Este 0 -- -- 76
2019-12-06 17:00:00 9.9 4 Este 6 Este 0 -- -- 67
2019-12-06 16:00:00 11.2 0 Calma 6 Sur 0 -- -- 62
2019-12-06 15:00:00 11.2 3 Sur 6 Sudeste 0 -- -- 61
2019-12-06 14:00:00 10.2 2 Sudeste 6 Sur 0 -- -- 66
2019-12-06 13:00:00 8.3 0 Calma 4 Este 0 -- -- 72
2019-12-06 12:00:00 6.3 0 Calma 4 Oeste 0 -- -- 79
2019-12-06 11:00:00 3 3 Sudoeste 4 Sudoeste 0 -- -- 93
2019-12-06 10:00:00 0.1 0 Calma 5 Noroeste 0 -- -- 95
2019-12-06 09:00:00 -1 2 Noroeste 4 Noroeste 0 -- -- 96
2019-12-06 08:00:00 -1.3 0 Calma 6 Sudoeste 0 -- -- 94
2019-12-06 07:00:00 -0.7 0 Calma 8 Oeste 0 -- -- 92
2019-12-06 06:00:00 0.9 8 Oeste 10 Noroeste 0 -- -- 93
2019-12-06 05:00:00 0.7 4 Noroeste 8 Noroeste 0 -- -- 92
2019-12-06 04:00:00 1.3 7 Noroeste 13 Noroeste 0 -- -- 94
2019-12-06 03:00:00 0.6 7 Noroeste 11 Noroeste 0 -- -- 94
2019-12-06 02:00:00 0.7 5 Noroeste 8 Noroeste 0 -- -- 94
2019-12-06 01:00:00 1.3 2 Oeste 12 Noroeste 0 -- -- 94
2019-12-06 00:00:00 1.9 8 Noroeste 12 Noroeste 0 -- -- 90
2019-12-05 23:00:00 3.1 6 Noroeste 14 Noroeste 0 -- -- 91
2019-12-05 22:00:00 4.7 7 Norte 12 Noroeste 0 -- -- 87
2019-12-05 21:00:00 5.6 3 Noroeste 10 Nordeste 0 -- -- 85
2019-12-05 20:00:00 5 4 Norte 12 Nordeste 0 -- -- 86
2019-12-05 19:00:00 6.6 5 Nordeste 15 Nordeste 0 -- -- 83
2019-12-05 18:00:00 7.9 11 Este 20 Este 0 -- -- 78
2019-12-05 17:00:00 9.6 17 Este 30 Este 0 -- -- 72
2019-12-05 16:00:00 10 20 Este 35 Este 0 -- -- 70
2019-12-05 15:00:00 10.1 19 Este 35 Este 0 -- -- 72
2019-12-05 14:00:00 8.5 6 Este 24 Este 0 -- -- 78
2019-12-05 13:00:00 7.9 10 Este 18 Este 0 -- -- 79
2019-12-05 12:00:00 5.2 3 Noroeste 4 Noroeste 0 -- -- 88
2019-12-05 11:00:00 1.7 3 Oeste 6 Sudeste 0 -- -- 96
2019-12-05 10:00:00 -0.3 3 Sudeste 9 Sudeste 0 -- -- 95
2019-12-05 09:00:00 -1.4 2 Sur 5 Sudoeste 0 -- -- 95
2019-12-05 08:00:00 -2 0 Calma 5 Sudoeste 0 -- -- 93
2019-12-05 07:00:00 -1.4 3 Sur 5 Sur 0 -- -- 92
2019-12-05 06:00:00 -0.7 4 Noroeste 9 Noroeste 0 -- -- 94
2019-12-05 05:00:00 -0.9 2 Noroeste 13 Noroeste 0 -- -- 93
2019-12-05 04:00:00 -0.8 4 Oeste 9 Noroeste 0 -- -- 94
2019-12-05 03:00:00 -0.4 6 Noroeste 12 Noroeste 0 -- -- 93
2019-12-05 02:00:00 -0.1 4 Noroeste 8 Este 0 -- -- 93
2019-12-05 01:00:00 0.3 3 Sudeste 13 Este 0 -- -- 90
2019-12-05 00:00:00 1.1 0 Calma 13 Sudoeste 0 -- -- 88
2019-12-04 23:00:00 2.3 4 Sur 10 Noroeste 0 -- -- 86
2019-12-04 22:00:00 4.7 5 Norte 9 Norte 0 -- -- 77
2019-12-04 21:00:00 5.6 3 Noroeste 12 Nordeste 0 -- -- 74
2019-12-04 20:00:00 5.7 8 Nordeste 10 Norte 0 -- -- 75
2019-12-04 19:00:00 6.5 0 Calma 5 Noroeste 0 -- -- 75
2019-12-04 18:00:00 8.1 0 Calma 8 Norte 0 -- -- 69
2019-12-04 17:00:00 9.9 6 Nordeste 20 Norte 0 -- -- 64
2019-12-04 16:00:00 10.3 13 Norte 21 Norte 0 -- -- 63
2019-12-04 15:00:00 9.9 14 Nordeste 21 Nordeste 0 -- -- 64
2019-12-04 14:00:00 10.1 12 Nordeste 21 Nordeste 0 -- -- 60
2019-12-04 13:00:00 8.8 16 Norte 23 Norte 0 -- -- 64
2019-12-04 12:00:00 7 14 Norte 20 Norte 0 -- -- 69
2019-12-04 11:00:00 4 0 Calma 7 Sudoeste 0 -- -- 84
2019-12-04 10:00:00 1.5 4 Sudoeste 8 Sudeste 0 -- -- 86
2019-12-04 09:00:00 0.4 3 Norte 9 Noroeste 0 -- -- 89
2019-12-04 08:00:00 -1 4 Noroeste 9 Norte 0 -- -- 93
2019-12-04 07:00:00 -0.5 6 Noroeste 13 Noroeste 0 -- -- 89
2019-12-04 06:00:00 -1.3 3 Oeste 4 Noroeste 0 -- -- 92
2019-12-04 05:00:00 -1 3 Oeste 8 Noroeste 0 -- -- 90
2019-12-04 04:00:00 -1.1 2 Norte 10 Noroeste 0 -- -- 91
2019-12-04 03:00:00 -1.1 8 Noroeste 11 Noroeste 0 -- -- 91
2019-12-04 02:00:00 -0.8 4 Norte 9 Nordeste 0 -- -- 91
2019-12-04 01:00:00 -1.1 8 Noroeste 9 Noroeste 0 -- -- 91
2019-12-04 00:00:00 -0.9 5 Noroeste 8 Noroeste 0 -- -- 91
2019-12-03 23:00:00 -0.2 0 Calma 9 Norte 0 -- -- 90
2019-12-03 22:00:00 -1 0 Calma 8 Nordeste 0 -- -- 93
2019-12-03 21:00:00 -0.6 5 Noroeste 8 Noroeste 0 -- -- 90
2019-12-03 20:00:00 0.4 5 Noroeste 6 Noroeste 0 -- -- 89
2019-12-03 19:00:00 1.9 5 Este 13 Sudeste 0 -- -- 83
2019-12-03 18:00:00 3.7 8 Sudeste 15 Sudeste 0 -- -- 79
2019-12-03 17:00:00 5.8 12 Sudeste 20 Este 0 -- -- 72
2019-12-03 16:00:00 6.7 9 Este 24 Este 0 -- -- 64
2019-12-03 15:00:00 6.4 9 Nordeste 19 Este 0 -- -- 64
2019-12-03 14:00:00 5.8 12 Este 21 Este 0 -- -- 66
2019-12-03 13:00:00 5.5 11 Este 22 Este 0 -- -- 67
2019-12-03 12:00:00 4.1 2 Nordeste 5 Nordeste 0 -- -- 77
2019-12-03 11:00:00 1.7 3 Noroeste 5 Noroeste 0 -- -- 89
2019-12-03 10:00:00 -0.9 0 Calma 5 Noroeste 0 -- -- 93
2019-12-03 09:00:00 -3.3 3 Noroeste 8 Noroeste 0 -- -- 94
2019-12-03 08:00:00 -3.7 2 Noroeste 6 Noroeste 0 -- -- 94
2019-12-03 07:00:00 -3.6 2 Noroeste 8 Noroeste 0 -- -- 95
2019-12-03 06:00:00 -3.5 3 Noroeste 6 Noroeste 0 -- -- 94
2019-12-03 05:00:00 -3 0 Calma 2 Sudoeste 0 -- -- 94
2019-12-03 04:00:00 -2.5 0 Calma 3 Noroeste 0 -- -- 94
2019-12-03 03:00:00 -2 2 Noroeste 7 Oeste 0 -- -- 93
2019-12-03 02:00:00 -1.7 3 Noroeste 6 Oeste 0 -- -- 93
2019-12-03 01:00:00 -1 4 Norte 5 Norte 0 -- -- 93
2019-12-03 00:00:00 -0.1 0 Calma 6 Nordeste 0 -- -- 92
2019-12-02 23:00:00 0.3 4 Nordeste 6 Este 0 -- -- 88
2019-12-02 22:00:00 2 3 Este 9 Este 0 -- -- 85
2019-12-02 21:00:00 2.6 4 Nordeste 11 Este 0 -- -- 86
2019-12-02 20:00:00 4.2 9 Este 26 Este 0 -- -- 83
2019-12-02 19:00:00 6.1 15 Este 27 Este 0 -- -- 78
2019-12-02 18:00:00 8.2 17 Nordeste 30 Nordeste 0 -- -- 63
2019-12-02 17:00:00 9.4 14 Nordeste 33 Nordeste 0 -- -- 58
2019-12-02 16:00:00 10.7 23 Nordeste 45 Nordeste 0 -- -- 54
2019-12-02 15:00:00 11.2 26 Nordeste 39 Nordeste 0 -- -- 53
2019-12-02 14:00:00 10.4 19 Nordeste 36 Nordeste 0 -- -- 62
2019-12-02 13:00:00 9.8 21 Nordeste 33 Nordeste 0 -- -- 63
2019-12-02 12:00:00 8.7 11 Nordeste 18 Nordeste 0 -- -- 67
2019-12-02 11:00:00 6.7 9 Nordeste 17 Norte 0 -- -- 73
2019-12-02 10:00:00 4.3 8 Norte 15 Nordeste 0 -- -- 80
2019-12-02 09:00:00 2.7 10 Este 13 Nordeste 0 -- -- 82
2019-12-02 08:00:00 2.4 8 Nordeste 14 Nordeste 0 -- -- 81
2019-12-02 07:00:00 2.4 8 Nordeste 17 Nordeste 0 -- -- 81
2019-12-02 06:00:00 2.3 6 Nordeste 18 Norte 0 -- -- 83
2019-12-02 05:00:00 3 12 Norte 21 Norte 0 -- -- 80
2019-12-02 04:00:00 3.1 11 Norte 22 Norte 0 -- -- 81
2019-12-02 03:00:00 3.1 13 Norte 20 Norte 0 -- -- 82
2019-12-02 02:00:00 3.3 10 Norte 20 Norte 0 -- -- 83
2019-12-02 01:00:00 3.8 11 Nordeste 24 Nordeste 0 -- -- 83
2019-12-02 00:00:00 4.4 15 Norte 23 Norte 0 -- -- 82
2019-12-01 23:00:00 5.1 16 Norte 23 Norte 0 -- -- 82
2019-12-01 22:00:00 6 13 Norte 22 Norte 0 -- -- 79
2019-12-01 21:00:00 5.8 9 Norte 14 Norte 0 -- -- 83
2019-12-01 20:00:00 5.7 5 Norte 10 Norte 0 -- -- 88
2019-12-01 19:00:00 6.7 4 Nordeste 6 Nordeste 0.2 -- -- 89
2019-12-01 18:00:00 7.1 7 Este 16 Nordeste 0 -- -- 85
2019-12-01 17:00:00 8 11 Este 27 Nordeste 0 -- -- 82
2019-12-01 16:00:00 8.5 16 Nordeste 27 Nordeste 0 -- -- 80
2019-12-01 15:00:00 7.9 15 Nordeste 30 Nordeste 0 -- -- 86
2019-12-01 14:00:00 7.5 18 Nordeste 35 Nordeste 0 -- -- 88
2019-12-01 13:00:00 7.7 19 Norte 29 Norte 0 -- -- 85
2019-12-01 12:00:00 7.4 13 Norte 19 Norte 0 -- -- 90
2019-12-01 11:00:00 6.9 7 Norte 11 Norte 0 -- -- 90
2019-12-01 10:00:00 6.1 3 Norte 6 Norte 0.4 -- -- 94
2019-12-01 09:00:00 5.9 2 Norte 6 Noroeste 0 -- -- 96
2019-12-01 08:00:00 5.9 2 Sudeste 13 Sudeste 0.2 -- -- 97
2019-12-01 07:00:00 5.9 7 Sudeste 11 Sudeste 0.4 -- -- 96
2019-12-01 06:00:00 6.2 3 Sur 12 Sur 1.4 -- -- 95
2019-12-01 05:00:00 6.4 10 Sur 18 Sur 0 -- -- 92
2019-12-01 04:00:00 6.4 12 Sur 18 Sur 0.2 -- -- 93
2019-12-01 03:00:00 6.2 10 Sur 21 Sur 0 -- -- 92
2019-12-01 02:00:00 6.3 12 Sur 22 Sur 0 -- -- 91
2019-12-01 01:00:00 6.1 7 Sudeste 14 Sur 0 -- -- 92
2019-12-01 00:00:00 5.4 0 Calma 6 Sur 0 -- -- 91
2019-11-30 23:00:00 4.6 4 Sudoeste 6 Sudoeste 0 -- -- 92
2019-11-30 22:00:00 4.6 3 Sur 14 Oeste 0 -- -- 87
2019-11-30 21:00:00 5.1 3 Oeste 25 Sudoeste 0 -- -- 85
2019-11-30 20:00:00 6.1 18 Sudoeste 29 Sudoeste 0 -- -- 84
2019-11-30 19:00:00 7.1 7 Sudoeste 34 Oeste 0 -- -- 73
2019-11-30 18:00:00 9 21 Sudoeste 35 Oeste 0 -- -- 70
2019-11-30 17:00:00 10.7 15 Oeste 32 Oeste 0 -- -- 63
2019-11-30 16:00:00 10.8 21 Sudoeste 32 Sudoeste 0 -- -- 70
2019-11-30 15:00:00 10.4 16 Sudoeste 27 Oeste 0 -- -- 75
2019-11-30 14:00:00 10 15 Oeste 35 Oeste 0.4 -- -- 85
2019-11-30 13:00:00 11 22 Oeste 50 Oeste 0.2 -- -- 78
2019-11-30 12:00:00 11.6 22 Oeste 39 Oeste 0 -- -- 81
2019-11-30 11:00:00 11.9 20 Oeste 38 Oeste 0.4 -- -- 89
2019-11-30 10:00:00 11.9 18 Sudoeste 38 Sudoeste 0.8 -- -- 94
2019-11-30 09:00:00 11.9 15 Sudoeste 29 Sudoeste 0.2 -- -- 94
2019-11-30 08:00:00 11.5 11 Sur 21 Sudoeste 0.2 -- -- 95
2019-11-30 07:00:00 11.4 15 Sur 21 Sur 0 -- -- 95
2019-11-30 06:00:00 11.3 14 Sur 26 Sur 0.2 -- -- 94
2019-11-30 05:00:00 11.4 15 Sur 27 Sudoeste 0 -- -- 94
2019-11-30 04:00:00 11.5 20 Sudoeste 31 Sudoeste 0 -- -- 95
2019-11-30 03:00:00 9.6 4 Sudeste 8 Sur 0.2 -- -- 97
2019-11-30 02:00:00 9.5 2 Sudoeste 7 Sudoeste 0.4 -- -- 96
2019-11-30 01:00:00 9.6 0 Calma 3 Sur 0.6 -- -- 95
2019-11-30 00:00:00 9.6 3 Sur 7 Sudeste 0 -- -- 95
2019-11-29 23:00:00 9.7 2 Sur 9 Oeste 0.2 -- -- 93
2019-11-29 22:00:00 10.3 5 Oeste 11 Oeste 0.6 -- -- 93
2019-11-29 21:00:00 10.4 4 Sudoeste 13 Sudoeste 0.2 -- -- 92
2019-11-29 20:00:00 10.5 9 Sudoeste 15 Sudoeste 0 -- -- 90
2019-11-29 19:00:00 10.9 9 Sudoeste 13 Sudoeste 0 -- -- 87
2019-11-29 18:00:00 11.5 7 Sudoeste 15 Sudoeste 0 -- -- 82
2019-11-29 17:00:00 13 9 Sudoeste 23 Sudoeste 0 -- -- 76
2019-11-29 16:00:00 14.4 17 Sudoeste 24 Sudoeste 0 -- -- 64
2019-11-29 15:00:00 14.5 8 Sudoeste 17 Sudoeste 0 -- -- 68
2019-11-29 14:00:00 12.6 5 Sur 13 Sudoeste 0 -- -- 80
2019-11-29 13:00:00 11.2 4 Sudoeste 6 Sudoeste 0 -- -- 89
2019-11-29 12:00:00 9.2 0 Calma 6 Sur 0 -- -- 97
2019-11-29 11:00:00 7.7 3 Sur 6 Este 0 -- -- 98
2019-11-29 10:00:00 6.3 3 Norte 5 Noroeste 0 -- -- 98
2019-11-29 09:00:00 5.9 4 Sur 6 Sur 0 -- -- 98
2019-11-29 08:00:00 6.3 2 Sudoeste 5 Sur 0 -- -- 98
2019-11-29 07:00:00 6.3 0 Calma 5 Noroeste 0 -- -- 98
2019-11-29 06:00:00 6.7 5 Sur 7 Sudoeste 0 -- -- 97
2019-11-29 05:00:00 7.3 4 Sudeste 5 Este 0 -- -- 97
2019-11-29 04:00:00 7.9 2 Noroeste 4 Sudoeste 0 -- -- 96
2019-11-29 03:00:00 9.1 3 Sudoeste 11 Oeste 0 -- -- 97
2019-11-29 02:00:00 9.6 6 Noroeste 8 Noroeste 0 -- -- 96
2019-11-29 01:00:00 10.1 2 Noroeste 16 Sudoeste 0 -- -- 94
2019-11-29 00:00:00 11 9 Sudoeste 18 Sudoeste 0 -- -- 93
2019-11-28 23:00:00 10.7 6 Sudoeste 12 Sudoeste 0 -- -- 94
2019-11-28 22:00:00 10.2 3 Nordeste 26 Sudoeste 0 -- -- 92
2019-11-28 21:00:00 10.9 19 Sudoeste 30 Sudoeste 0 -- -- 93
2019-11-28 20:00:00 10.8 19 Sudoeste 27 Sudoeste 0 -- -- 93
2019-11-28 19:00:00 10.5 15 Sudoeste 32 Sudoeste 0.2 -- -- 93
2019-11-28 18:00:00 10.7 13 Sudoeste 28 Sudoeste 0.2 -- -- 90
2019-11-28 17:00:00 11 17 Sudoeste 41 Sudoeste 0 -- -- 84
2019-11-28 16:00:00 11.1 27 Sudoeste 57 Oeste 0 -- -- 80
2019-11-28 15:00:00 11.7 24 Sudoeste 43 Sudoeste 0 -- -- 83
2019-11-28 14:00:00 12.4 26 Sudoeste 42 Sudoeste 0 -- -- 83
2019-11-28 13:00:00 12.1 20 Sudoeste 32 Sudoeste 0 -- -- 81
2019-11-28 12:00:00 11.5 17 Sudoeste 28 Sudoeste 0 -- -- 85
2019-11-28 11:00:00 11.5 15 Sudoeste 38 Sudoeste 0 -- -- 85
2019-11-28 10:00:00 10.6 21 Sudoeste 35 Sudoeste 0 -- -- 91
2019-11-28 09:00:00 10.1 13 Sudoeste 53 Sudoeste 0 -- -- 92
2019-11-28 08:00:00 9.8 28 Sudoeste 41 Sudoeste 0 -- -- 93
2019-11-28 07:00:00 9.4 24 Sudoeste 41 Sudoeste 0 -- -- 95
2019-11-28 06:00:00 9 16 Sudoeste 28 Sudoeste 0 -- -- 93
2019-11-28 05:00:00 9.3 17 Sudoeste 30 Sudoeste 0 -- -- 92
2019-11-28 04:00:00 9.3 14 Sudoeste 25 Sudoeste 0 -- -- 92
2019-11-28 03:00:00 9.2 16 Sudoeste 28 Sudoeste 0 -- -- 92
2019-11-28 02:00:00 8.6 13 Sudoeste 33 Oeste 0 -- -- 92
2019-11-28 01:00:00 8.9 21 Sudoeste 34 Sudoeste 0 -- -- 90
2019-11-28 00:00:00 8.8 16 Sudoeste 30 Sudoeste 0 -- -- 91
2019-11-27 23:00:00 8.7 18 Sudoeste 31 Sudoeste 0 -- -- 91
2019-11-27 22:00:00 8.6 21 Sudoeste 35 Sudoeste 0 -- -- 91
2019-11-27 21:00:00 8.6 17 Sudoeste 38 Sudoeste 0 -- -- 89
2019-11-27 20:00:00 8.9 20 Sudoeste 32 Sudoeste 0 -- -- 88
2019-11-27 19:00:00 9.1 21 Sudoeste 37 Sudoeste 0 -- -- 85
2019-11-27 18:00:00 9.4 22 Sudoeste 35 Sudoeste 0 -- -- 84
2019-11-27 17:00:00 10.1 23 Sudoeste 48 Sudoeste 0 -- -- 83
2019-11-27 16:00:00 10.4 21 Sudoeste 45 Sudoeste 0.2 -- -- 83
2019-11-27 15:00:00 10.2 17 Sudoeste 45 Sudoeste 0.6 -- -- 90
2019-11-27 14:00:00 10.2 26 Sudoeste 41 Sudoeste 0 -- -- 87
2019-11-27 06:00:00 -- -- -- -- -- -- -- -- --
2019-11-27 05:00:00 -- -- -- -- -- -- -- -- --
2019-11-27 04:00:00 -- -- -- -- -- -- -- -- --
2019-11-27 03:00:00 -- -- -- -- -- -- -- -- --
2019-11-27 02:00:00 -- -- -- -- -- -- -- -- --
2019-11-27 01:00:00 -- -- -- -- -- -- -- -- --
2019-11-27 00:00:00 -- -- -- -- -- -- -- -- --
2019-11-26 23:00:00 -- -- -- -- -- -- -- -- --
2019-11-26 22:00:00 9.5 18 Sudoeste 35 Sudoeste 0 -- -- 85
2019-11-26 21:00:00 9.7 14 Sudoeste 42 Sudoeste 0.2 -- -- 90
2019-11-26 20:00:00 10.4 23 Sudoeste 46 Sudoeste 0.8 -- -- 87
2019-11-26 19:00:00 10.9 26 Sudoeste 54 Sudoeste 0 -- -- 87
2019-11-26 18:00:00 12.8 38 Sudoeste 65 Sudoeste 0 -- -- 72
2019-11-26 17:00:00 14 43 Sudoeste 71 Sudoeste 0 -- -- 68
2019-11-26 16:00:00 14.8 34 Sudoeste 59 Oeste 0 -- -- 66
2019-11-26 15:00:00 14.6 27 Sudoeste 50 Sudoeste 0.2 -- -- 75
2019-11-26 14:00:00 14.8 25 Sudoeste 45 Sudoeste 0 -- -- 76
2019-11-26 13:00:00 13.3 14 Sudoeste 27 Sudoeste 0 -- -- 84
2019-11-26 12:00:00 12.6 18 Oeste 35 Sudoeste 0 -- -- 84
2019-11-26 11:00:00 12.4 21 Sudoeste 39 Sudoeste 0 -- -- 94
2019-11-26 10:00:00 11.6 13 Sur 23 Sudoeste 0.2 -- -- 96
2019-11-26 09:00:00 11.1 15 Sudoeste 21 Sudoeste 0.2 -- -- 97
2019-11-26 08:00:00 10.2 8 Sur 14 Sur 0.6 -- -- 96
2019-11-26 07:00:00 10 5 Sudeste 22 Sudoeste 0.4 -- -- 95
2019-11-26 06:00:00 10.1 21 Sudoeste 27 Sudoeste 0 -- -- 94
2019-11-26 05:00:00 9.9 7 Sur 12 Sur 0 -- -- 93
2019-11-26 04:00:00 10 6 Sudoeste 16 Sudoeste 0 -- -- 91
2019-11-26 03:00:00 10.2 6 Sudoeste 18 Sudoeste 0 -- -- 90
2019-11-26 02:00:00 10.1 7 Sudoeste 24 Sudoeste 0 -- -- 90
2019-11-26 01:00:00 9.8 17 Sudoeste 26 Sudoeste 0 -- -- 88
2019-11-26 00:00:00 10 16 Sudoeste 25 Sudoeste 0 -- -- 86
2019-11-25 23:00:00 9.9 14 Sudoeste 23 Sudoeste 0 -- -- 87
2019-11-25 22:00:00 9.3 9 Sudoeste 26 Sudoeste 0 -- -- 87
2019-11-25 21:00:00 9.6 6 Sur 15 Sudoeste 0 -- -- 85
2019-11-25 20:00:00 10.2 9 Sudoeste 35 Sudoeste 0 -- -- 83
2019-11-25 19:00:00 10.9 19 Oeste 35 Oeste 0 -- -- 81
2019-11-25 18:00:00 11.3 13 Oeste 25 Sudoeste 0 -- -- 81
2019-11-25 17:00:00 11.9 15 Sudoeste 28 Sudoeste 0 -- -- 78
2019-11-25 16:00:00 12.4 17 Sudoeste 31 Sudoeste 0 -- -- 75
2019-11-25 15:00:00 12.8 18 Sudoeste 41 Sudoeste 0 -- -- 73
2019-11-25 14:00:00 13.2 22 Sudoeste 40 Sudoeste 0 -- -- 70
2019-11-25 13:00:00 12.9 21 Sudoeste 41 Sudoeste 0 -- -- 70
2019-11-25 12:00:00 12.8 17 Sudoeste 28 Oeste 0 -- -- 75
2019-11-25 11:00:00 11.8 12 Oeste 20 Sudoeste 0 -- -- 78
2019-11-25 10:00:00 10 2 Oeste 12 Oeste 0 -- -- 86
2019-11-25 09:00:00 9.1 4 Sudoeste 20 Sudoeste 0 -- -- 87
2019-11-25 08:00:00 8.9 15 Sudoeste 24 Sudoeste 0 -- -- 93
2019-11-25 07:00:00 8.8 11 Sudoeste 28 Sudoeste 0 -- -- 92
2019-11-25 06:00:00 9.6 18 Sudoeste 29 Sudoeste 0 -- -- 91
2019-11-25 05:00:00 8.9 6 Sudoeste 25 Sudoeste 0 -- -- 89
2019-11-25 04:00:00 9 8 Este 22 Sudoeste 0 -- -- 92
2019-11-25 03:00:00 10.2 13 Sudoeste 27 Sudoeste 0 -- -- 91
2019-11-25 02:00:00 8.6 8 Sur 17 Sudoeste 0.2 -- -- 98
2019-11-25 01:00:00 7.6 4 Sudeste 7 Sudeste 0 -- -- 97
2019-11-25 00:00:00 7.5 0 Calma 3 Sur 0.2 -- -- 97
2019-11-24 23:00:00 7.5 0 Calma 3 Noroeste 0.4 -- -- 97
2019-11-24 22:00:00 7.4 3 Norte 5 Noroeste 0.8 -- -- 97
2019-11-24 21:00:00 7.5 2 Sudoeste 9 Noroeste 1.2 -- -- 96
2019-11-24 20:00:00 7.4 2 Noroeste 12 Sur 0.2 -- -- 96
2019-11-24 19:00:00 7.2 9 Sur 13 Sur 0 -- -- 95
2019-11-24 18:00:00 7.5 6 Sudoeste 24 Oeste 0 -- -- 92
2019-11-24 17:00:00 8.1 18 Sudoeste 33 Sudoeste 0 -- -- 86
2019-11-24 16:00:00 8.6 21 Sudoeste 33 Sudoeste 0 -- -- 82
2019-11-24 15:00:00 8.1 20 Sudoeste 33 Sudoeste 0 -- -- 82
2019-11-24 14:00:00 7.8 19 Sudoeste 32 Sudoeste 0 -- -- 83
2019-11-24 13:00:00 8.4 23 Sudoeste 30 Sudoeste 0 -- -- 79
2019-11-24 12:00:00 7.4 17 Sudoeste 28 Sudoeste 0 -- -- 82
2019-11-24 11:00:00 5.5 12 Sudoeste 21 Sudoeste 0 -- -- 92
2019-11-24 10:00:00 1.9 2 Este 6 Sur 0 -- -- 97
2019-11-24 09:00:00 0.4 3 Este 5 Este 0 -- -- 96
2019-11-24 08:00:00 0.4 2 Oeste 5 Oeste 0 -- -- 96
2019-11-24 07:00:00 -0.1 0 Calma 9 Norte 0 -- -- 95
2019-11-24 06:00:00 0.1 3 Este 6 Sudeste 0 -- -- 94
2019-11-24 05:00:00 0.8 0 Calma 8 Sur 0 -- -- 92
2019-11-24 04:00:00 2 0 Calma 10 Sur 0 -- -- 90
2019-11-24 03:00:00 2.2 4 Sur 8 Sur 0 -- -- 90
2019-11-24 02:00:00 2.8 4 Sudeste 16 Oeste 0 -- -- 87
2019-11-24 01:00:00 4.3 9 Oeste 17 Oeste 0 -- -- 84
2019-11-24 00:00:00 4.7 8 Sur 23 Oeste 0 -- -- 80
2019-11-23 23:00:00 5 13 Sudoeste 20 Sudoeste 0 -- -- 79
2019-11-23 22:00:00 5.7 10 Oeste 24 Oeste 0 -- -- 79
2019-11-23 21:00:00 6.1 13 Oeste 23 Oeste 0 -- -- 76
2019-11-23 20:00:00 7.2 11 Sudoeste 20 Sudoeste 0 -- -- 72
2019-11-23 19:00:00 8.3 4 Oeste 34 Noroeste 0 -- -- 65
2019-11-23 18:00:00 8.6 19 Noroeste 40 Noroeste 0 -- -- 62
2019-11-23 17:00:00 9.8 17 Noroeste 40 Noroeste 0 -- -- 55
2019-11-23 16:00:00 9.9 17 Oeste 48 Oeste 0 -- -- 55
2019-11-23 15:00:00 9.9 24 Noroeste 52 Noroeste 0 -- -- 59
2019-11-23 14:00:00 9.7 26 Noroeste 47 Oeste 0 -- -- 61
2019-11-23 13:00:00 9.5 28 Noroeste 45 Noroeste 0 -- -- 59
2019-11-23 12:00:00 9.3 22 Oeste 41 Oeste 0 -- -- 60
2019-11-23 11:00:00 8.7 23 Oeste 39 Oeste 0.2 -- -- 62
2019-11-23 10:00:00 7.2 21 Noroeste 32 Oeste 0 -- -- 67
2019-11-23 09:00:00 6.1 15 Oeste 33 Oeste 0 -- -- 70
2019-11-23 08:00:00 5.4 21 Oeste 36 Oeste 0 -- -- 71
2019-11-23 07:00:00 5.5 20 Oeste 44 Oeste 0 -- -- 70
2019-11-23 06:00:00 5.6 29 Noroeste 42 Noroeste 0 -- -- 69
2019-11-23 05:00:00 5.4 18 Oeste 45 Noroeste 0 -- -- 79
2019-11-23 04:00:00 5.2 16 Sudoeste 33 Noroeste 0 -- -- 82
2019-11-23 03:00:00 5.3 18 Oeste 33 Oeste 0 -- -- 82
2019-11-23 02:00:00 5.2 23 Oeste 43 Sudoeste 0 -- -- 85
2019-11-23 01:00:00 5.5 23 Sudoeste 49 Sudoeste 0 -- -- 84
2019-11-23 00:00:00 6.2 24 Oeste 51 Sudoeste 0 -- -- 85
2019-11-22 23:00:00 6.4 29 Sudoeste 47 Sudoeste 0.6 -- -- 86
2019-11-22 22:00:00 7.3 25 Sudoeste 47 Sudoeste 0 -- -- 85
2019-11-22 21:00:00 7.4 26 Sudoeste 37 Sudoeste 0 -- -- 88
2019-11-22 20:00:00 7.2 21 Sudoeste 41 Sudoeste 1.8 -- -- 89
2019-11-22 19:00:00 7.6 21 Sudoeste 42 Sudoeste 0 -- -- 86
2019-11-22 18:00:00 7.9 25 Sudoeste 41 Sudoeste 0 -- -- 82
2019-11-22 17:00:00 9.1 26 Sudoeste 49 Sudoeste 0 -- -- 77
2019-11-22 16:00:00 10.3 31 Sudoeste 59 Sudoeste 0 -- -- 76
2019-11-22 15:00:00 12.2 33 Sudoeste 57 Sudoeste 0 -- -- 71
2019-11-22 14:00:00 12.6 38 Sudoeste 59 Sudoeste 0 -- -- 77
2019-11-22 13:00:00 12 32 Sudoeste 54 Sudoeste 0.2 -- -- 85
2019-11-22 12:00:00 9.9 25 Sur 52 Sudoeste 0.4 -- -- 93
2019-11-22 11:00:00 9.7 21 Sur 44 Sur 0.4 -- -- 92
2019-11-22 10:00:00 8.5 24 Sur 36 Sur 1 -- -- 94
2019-11-22 09:00:00 7.7 21 Sur 32 Sudoeste 0.4 -- -- 95
2019-11-22 08:00:00 7.1 17 Sur 37 Sur 1 -- -- 95
2019-11-22 07:00:00 6.9 23 Sur 36 Sur 1 -- -- 93
2019-11-22 06:00:00 6.8 23 Sur 35 Sur 1.2 -- -- 91
2019-11-22 05:00:00 6.7 13 Sudoeste 23 Sudoeste 0.4 -- -- 92
2019-11-22 04:00:00 6.2 8 Sur 18 Sur 0 -- -- 91
2019-11-22 03:00:00 5.4 10 Sur 17 Sur 0 -- -- 96
2019-11-22 02:00:00 3.1 2 Sur 5 Sur 0 -- -- 95
2019-11-22 01:00:00 2.9 2 Sudoeste 4 Sudeste 0 -- -- 93
2019-11-22 00:00:00 3.5 0 Calma 4 Este 0 -- -- 92
2019-11-21 23:00:00 3.6 0 Calma 4 Sudoeste 0 -- -- 91
2019-11-21 22:00:00 3.9 4 Sudoeste 6 Sudoeste 0 -- -- 89
2019-11-21 21:00:00 4 3 Oeste 11 Sur 0 -- -- 88
2019-11-21 20:00:00 4.8 4 Sudoeste 5 Sur 0 -- -- 83
2019-11-21 19:00:00 6.1 3 Sudoeste 13 Sudoeste 0 -- -- 77
2019-11-21 18:00:00 7.7 9 Sudoeste 21 Oeste 0 -- -- 70
2019-11-21 17:00:00 9.4 14 Sudoeste 29 Sudoeste 0 -- -- 59
2019-11-21 16:00:00 10.3 15 Sudoeste 33 Oeste 0 -- -- 59
2019-11-21 15:00:00 10.4 15 Sudoeste 33 Sudoeste 0 -- -- 58
2019-11-21 14:00:00 9.4 21 Sudoeste 35 Sudoeste 0 -- -- 61
2019-11-21 13:00:00 8.9 15 Sudoeste 33 Sudoeste 0 -- -- 67
2019-11-21 12:00:00 8 17 Oeste 26 Oeste 0 -- -- 69
2019-11-21 11:00:00 6.7 8 Oeste 13 Oeste 0 -- -- 86
2019-11-21 10:00:00 5.6 0 Calma 6 Oeste 0 -- -- 96
2019-11-21 09:00:00 4.4 5 Oeste 10 Oeste 0 -- -- 94
2019-11-21 08:00:00 -- -- -- -- -- -- -- -- --
2019-11-21 07:00:00 -- -- -- -- -- -- -- -- --
2019-11-21 06:00:00 -- -- -- -- -- -- -- -- --
2019-11-21 05:00:00 -- -- -- -- -- -- -- -- --
2019-11-21 04:00:00 -- -- -- -- -- -- -- -- --
2019-11-21 03:00:00 -- -- -- -- -- -- -- -- --
2019-11-21 02:00:00 -- -- -- -- -- -- -- -- --
2019-11-21 01:00:00 -- -- -- -- -- -- -- -- --
2019-11-21 00:00:00 -- -- -- -- -- -- -- -- --
2019-11-20 23:00:00 -- -- -- -- -- -- -- -- --
2019-11-20 22:00:00 -- -- -- -- -- -- -- -- --
2019-11-20 21:00:00 -- -- -- -- -- -- -- -- --
2019-11-20 20:00:00 -- -- -- -- -- -- -- -- --
2019-11-20 19:00:00 5.3 5 Sudoeste 10 Sudoeste 0 -- -- 94
2019-11-20 18:00:00 5.9 8 Sur 18 Sudoeste 0.2 -- -- 93
2019-11-20 17:00:00 6.4 17 Sudoeste 28 Sudoeste 0 -- -- 92
2019-11-20 16:00:00 6.3 12 Sudoeste 22 Sudoeste 0.4 -- -- 94
2019-11-20 15:00:00 6.5 10 Sudoeste 18 Sudoeste 0 -- -- 93
2019-11-20 14:00:00 6.2 13 Sudoeste 26 Sudoeste 0 -- -- 93
2019-11-20 13:00:00 6 12 Sur 26 Sur 0.2 -- -- 94
2019-11-20 12:00:00 6 12 Sudoeste 21 Sur 0 -- -- 95
2019-11-20 11:00:00 6.2 6 Sur 8 Sur 0.4 -- -- 97
2019-11-20 10:00:00 5.3 4 Sudeste 9 Sudeste 0.4 -- -- 97
2019-11-20 09:00:00 5 4 Sudeste 8 Sudeste 0.6 -- -- 97
2019-11-20 08:00:00 5 4 Sudeste 8 Sudeste 0.6 -- -- 96
2019-11-20 07:00:00 5 4 Sudeste 9 Sudeste 0.4 -- -- 96
2019-11-20 06:00:00 5 6 Sudeste 9 Sudeste 0.2 -- -- 96
2019-11-20 05:00:00 5.1 6 Sur 9 Sudeste 0 -- -- 96
2019-11-20 04:00:00 5 3 Sudeste 6 Este 0 -- -- 95
2019-11-20 03:00:00 5.1 2 Este 3 Este 0 -- -- 94
2019-11-20 02:00:00 5.1 3 Sudeste 6 Sudeste 0.2 -- -- 94
2019-11-20 01:00:00 5.4 0 Calma 3 Oeste 0 -- -- 91
2019-11-20 00:00:00 5.7 3 Oeste 7 Oeste 0.2 -- -- 89
2019-11-19 23:00:00 6.1 0 Calma 5 Sur 0 -- -- 80
2019-11-19 22:00:00 6.2 5 Sur 8 Sur 0 -- -- 78
2019-11-19 21:00:00 6.3 4 Sudoeste 6 Sudoeste 0 -- -- 78
2019-11-19 20:00:00 6.7 2 Sudoeste 5 Sudoeste 0 -- -- 74
2019-11-19 19:00:00 7 3 Sudoeste 14 Sudoeste 0 -- -- 70
2019-11-19 18:00:00 7.6 12 Sudoeste 18 Sudoeste 0 -- -- 62
2019-11-19 17:00:00 7.9 8 Oeste 14 Oeste 0 -- -- 61
2019-11-19 16:00:00 7.3 12 Este 19 Este 0 -- -- 75
2019-11-19 15:00:00 7.5 11 Este 19 Sudeste 0 -- -- 73
2019-11-19 14:00:00 6.8 7 Este 13 Este 0 -- -- 74
2019-11-19 13:00:00 5.3 5 Este 8 Este 0 -- -- 78
2019-11-19 12:00:00 3.2 0 Calma 4 Sudeste 0 -- -- 84
2019-11-19 11:00:00 1 0 Calma 3 Nordeste 0 -- -- 93
2019-11-19 10:00:00 -1.1 0 Calma 3 Noroeste 0 -- -- 95
2019-11-19 09:00:00 -3 3 Noroeste 4 Noroeste 0 -- -- 95
2019-11-19 08:00:00 -3.5 2 Noroeste 3 Noroeste 0 -- -- 93
2019-11-19 07:00:00 -3.2 0 Calma 3 Noroeste 0 -- -- 93
2019-11-19 06:00:00 -2.8 0 Calma 3 Oeste 0 -- -- 93
2019-11-19 05:00:00 -2.9 0 Calma 2 Sudoeste 0 -- -- 92
2019-11-19 04:00:00 -2.5 0 Calma 3 Sur 0 -- -- 92
2019-11-19 03:00:00 -1.6 0 Calma 4 Noroeste 0 -- -- 92
2019-11-19 02:00:00 -0.9 4 Noroeste 7 Noroeste 0 -- -- 92
2019-11-19 01:00:00 -0.7 5 Noroeste 7 Noroeste 0 -- -- 91
2019-11-19 00:00:00 0.1 3 Oeste 9 Oeste 0 -- -- 90
2019-11-18 23:00:00 1.1 0 Calma 8 Sudoeste 0 -- -- 85
2019-11-18 22:00:00 3.7 4 Noroeste 13 Norte 0 -- -- 78
2019-11-18 21:00:00 3.5 5 Nordeste 9 Nordeste 0 -- -- 81
2019-11-18 20:00:00 4 4 Noroeste 7 Noroeste 0 -- -- 77
2019-11-18 19:00:00 6 3 Norte 8 Norte 0 -- -- 66
2019-11-18 18:00:00 7.7 6 Norte 30 Norte 0 -- -- 62
2019-11-18 17:00:00 9.5 20 Norte 32 Noroeste 0 -- -- 54
2019-11-18 16:00:00 10.3 20 Norte 35 Noroeste 0 -- -- 50
2019-11-18 15:00:00 10.8 19 Noroeste 34 Norte 0 -- -- 50
2019-11-18 14:00:00 11.3 17 Norte 34 Noroeste 0 -- -- 48
2019-11-18 13:00:00 10.6 21 Norte 37 Norte 0 -- -- 49
2019-11-18 12:00:00 9.9 19 Norte 37 Norte 0 -- -- 54
2019-11-18 11:00:00 8.8 22 Norte 32 Noroeste 0 -- -- 57
2019-11-18 10:00:00 5.7 12 Noroeste 25 Norte 0 -- -- 70
2019-11-18 09:00:00 1.4 0 Calma 5 Sudeste 0 -- -- 87
2019-11-18 08:00:00 1.5 2 Norte 13 Oeste 0 -- -- 80
2019-11-18 07:00:00 2.3 7 Oeste 12 Sudoeste 0 -- -- 81
2019-11-18 06:00:00 1.9 8 Sudoeste 18 Noroeste 0 -- -- 80
2019-11-18 05:00:00 4.1 12 Noroeste 23 Noroeste 0 -- -- 73
2019-11-18 04:00:00 3.1 12 Norte 19 Norte 0 -- -- 77
2019-11-18 03:00:00 3.6 12 Norte 18 Norte 0 -- -- 78
2019-11-18 02:00:00 2 6 Noroeste 15 Noroeste 0 -- -- 85
2019-11-18 01:00:00 2.3 10 Noroeste 13 Noroeste 0 -- -- 86
2019-11-18 00:00:00 1.9 2 Sudeste 11 Noroeste 0 -- -- 84
2019-11-17 23:00:00 2.8 8 Oeste 14 Noroeste 0 -- -- 83
2019-11-17 22:00:00 4.3 5 Noroeste 23 Noroeste 0 -- -- 76
2019-11-17 21:00:00 5.9 14 Noroeste 28 Oeste 0 -- -- 70
2019-11-17 20:00:00 6.3 17 Noroeste 34 Noroeste 0 -- -- 65
2019-11-17 19:00:00 6.4 13 Noroeste 26 Oeste 0 -- -- 62
2019-11-17 18:00:00 7.1 14 Noroeste 36 Oeste 0 -- -- 63
2019-11-17 17:00:00 9.2 29 Noroeste 39 Noroeste 0 -- -- 58
2019-11-17 16:00:00 10.5 26 Noroeste 42 Noroeste 0 -- -- 58
2019-11-17 15:00:00 11.5 26 Noroeste 41 Oeste 0 -- -- 53
2019-11-17 14:00:00 9.6 9 Sudoeste 27 Sudoeste 0 -- -- 79
2019-11-17 13:00:00 9.5 17 Oeste 27 Oeste 0 -- -- 79
2019-11-17 12:00:00 8.2 12 Sudoeste 25 Sudoeste 0 -- -- 86
2019-11-17 11:00:00 6.7 12 Oeste 22 Sudoeste 0 -- -- 90
2019-11-17 10:00:00 5.1 9 Oeste 23 Sudoeste 0.2 -- -- 93
2019-11-17 09:00:00 4.7 13 Oeste 24 Oeste 0 -- -- 92
2019-11-17 08:00:00 5 4 Oeste 29 Oeste 0 -- -- 90
2019-11-17 07:00:00 4.8 18 Oeste 32 Oeste 0 -- -- 89
2019-11-17 06:00:00 4.7 8 Oeste 26 Oeste 0 -- -- 89
2019-11-17 05:00:00 4.4 12 Sudoeste 23 Oeste 0 -- -- 90
2019-11-17 04:00:00 4 8 Oeste 18 Oeste 0 -- -- 90
2019-11-17 03:00:00 3.3 2 Oeste 13 Oeste 0 -- -- 90
2019-11-17 02:00:00 2.8 2 Nordeste 12 Oeste 0 -- -- 89
2019-11-17 01:00:00 3 7 Oeste 12 Oeste 0 -- -- 87
2019-11-17 00:00:00 2.4 4 Sudoeste 8 Sur 0 -- -- 85
2019-11-16 23:00:00 3.9 3 Sudoeste 12 Sudoeste 0 -- -- 76
2019-11-16 22:00:00 4.4 8 Sudoeste 12 Sudoeste 0 -- -- 74
2019-11-16 21:00:00 4.8 5 Sudoeste 12 Sudoeste 0 -- -- 65
2019-11-16 20:00:00 4.8 5 Oeste 13 Oeste 0 -- -- 66
2019-11-16 19:00:00 4.7 7 Noroeste 15 Oeste 0 -- -- 67
2019-11-16 18:00:00 4.7 6 Noroeste 26 Noroeste 0 -- -- 67
2019-11-16 17:00:00 7.3 18 Noroeste 30 Noroeste 0 -- -- 56
2019-11-16 16:00:00 8.9 16 Noroeste 31 Noroeste 0 -- -- 49
2019-11-16 15:00:00 8.8 17 Noroeste 32 Noroeste 0 -- -- 50
2019-11-16 14:00:00 8.2 18 Noroeste 36 Noroeste 0 -- -- 51
2019-11-16 13:00:00 7.2 22 Noroeste 32 Noroeste 0 -- -- 58
2019-11-16 12:00:00 6.8 14 Noroeste 29 Noroeste 0 -- -- 60
2019-11-16 11:00:00 6.9 18 Noroeste 28 Noroeste 0 -- -- 62
2019-11-16 10:00:00 5.6 18 Noroeste 26 Oeste 0 -- -- 69
2019-11-16 09:00:00 2.5 15 Noroeste 24 Noroeste 0 -- -- 80
2019-11-16 08:00:00 0.8 14 Noroeste 21 Noroeste 0 -- -- 86
2019-11-16 07:00:00 -0.1 8 Noroeste 14 Noroeste 0 -- -- 87
2019-11-16 06:00:00 -1.2 4 Sudoeste 6 Sudoeste 0 -- -- 91
2019-11-16 05:00:00 -1.9 0 Calma 4 Oeste 0 -- -- 92
2019-11-16 04:00:00 -1.9 3 Norte 5 Norte 0 -- -- 91
2019-11-16 03:00:00 -1.5 3 Sudoeste 6 Oeste 0 -- -- 92
2019-11-16 02:00:00 -1.2 0 Calma 5 Noroeste 0 -- -- 91
2019-11-16 01:00:00 -0.5 2 Oeste 6 Sudoeste 0 -- -- 91
2019-11-16 00:00:00 -0.2 0 Calma 6 Este 0 -- -- 87
2019-11-15 23:00:00 1.1 2 Norte 12 Oeste 0 -- -- 81
2019-11-15 22:00:00 2.1 4 Norte 9 Norte 0 -- -- 81
2019-11-15 21:00:00 2.8 8 Noroeste 17 Oeste 0 -- -- 77
2019-11-15 20:00:00 3.4 7 Oeste 15 Noroeste 0 -- -- 75
2019-11-15 19:00:00 3.6 9 Noroeste 20 Oeste 0 -- -- 76
2019-11-15 18:00:00 4.5 9 Noroeste 30 Noroeste 0 -- -- 73
2019-11-15 17:00:00 5.4 18 Noroeste 33 Noroeste 0 -- -- 66
2019-11-15 16:00:00 5.8 20 Oeste 35 Oeste 0 -- -- 64
2019-11-15 15:00:00 6.4 24 Noroeste 39 Noroeste 0 -- -- 61
2019-11-15 14:00:00 7.5 22 Noroeste 41 Oeste 0 -- -- 58
2019-11-15 13:00:00 7.2 22 Noroeste 35 Oeste 0 -- -- 62
2019-11-15 12:00:00 6.5 18 Noroeste 36 Noroeste 0.2 -- -- 61
2019-11-15 11:00:00 5.3 18 Oeste 38 Noroeste 0 -- -- 63
2019-11-15 10:00:00 3.7 15 Noroeste 25 Noroeste 0 -- -- 75
2019-11-15 09:00:00 3.4 13 Noroeste 31 Noroeste 0 -- -- 76
2019-11-15 08:00:00 1.2 11 Oeste 17 Oeste 0 -- -- 86
2019-11-15 07:00:00 1.5 8 Noroeste 16 Noroeste 0 -- -- 85
2019-11-15 06:00:00 1.4 6 Noroeste 15 Noroeste 0 -- -- 87
2019-11-15 05:00:00 1.2 8 Oeste 15 Oeste 0 -- -- 87
2019-11-15 04:00:00 0.9 7 Oeste 15 Noroeste 0 -- -- 89
2019-11-15 03:00:00 1.7 6 Noroeste 12 Noroeste 0 -- -- 87
2019-11-15 02:00:00 2.5 3 Norte 22 Noroeste 0 -- -- 87
2019-11-15 01:00:00 2.8 16 Noroeste 30 Noroeste 0 -- -- 86
2019-11-15 00:00:00 3.1 15 Noroeste 33 Noroeste 0 -- -- 86
2019-11-14 23:00:00 2.8 12 Noroeste 23 Noroeste 0.8 -- -- 90
2019-11-14 22:00:00 2.4 5 Sudoeste 18 Noroeste 1.4 -- -- 93
2019-11-14 21:00:00 2.4 11 Noroeste 39 Oeste 1.8 -- -- 92
2019-11-14 20:00:00 3.9 12 Noroeste 27 Noroeste 0 -- -- 83
2019-11-14 19:00:00 4.1 23 Noroeste 41 Noroeste 0 -- -- 79
2019-11-14 18:00:00 4.1 16 Oeste 34 Noroeste 0 -- -- 82
2019-11-14 17:00:00 5.1 13 Noroeste 41 Noroeste 0 -- -- 81
2019-11-14 16:00:00 5 23 Noroeste 38 Noroeste 1.2 -- -- 87
2019-11-14 15:00:00 4.1 26 Oeste 57 Oeste 0 -- -- 85
2019-11-14 14:00:00 2.8 22 Oeste 50 Oeste 2.2 -- -- 92
2019-11-14 13:00:00 5.3 31 Oeste 58 Oeste 0 -- -- 71
2019-11-14 12:00:00 5.7 27 Oeste 52 Oeste 0 -- -- 67
2019-11-14 11:00:00 5.8 22 Oeste 39 Oeste 0 -- -- 61
2019-11-14 10:00:00 3.8 13 Oeste 26 Sudoeste 0 -- -- 78
2019-11-14 09:00:00 2 14 Oeste 30 Oeste 0 -- -- 78
2019-11-14 08:00:00 2.4 11 Oeste 23 Noroeste 0 -- -- 77
2019-11-14 07:00:00 2.5 8 Oeste 21 Noroeste 0 -- -- 77
2019-11-14 06:00:00 3.6 15 Noroeste 37 Oeste 0 -- -- 76
2019-11-14 05:00:00 5.1 22 Oeste 42 Oeste 0 -- -- 67
2019-11-14 04:00:00 5.6 10 Norte 40 Oeste 0 -- -- 77
2019-11-14 03:00:00 7.2 16 Noroeste 30 Noroeste 0 -- -- 82
2019-11-14 02:00:00 7.3 20 Oeste 45 Sudoeste 0 -- -- 85
2019-11-14 01:00:00 7.5 25 Oeste 48 Sudoeste 0 -- -- 80
2019-11-14 00:00:00 7.6 20 Sudoeste 43 Sudoeste 0 -- -- 74
2019-11-13 23:00:00 7.4 21 Sudoeste 35 Sudoeste 0 -- -- 76
2019-11-13 22:00:00 8 13 Sudoeste 28 Oeste 0 -- -- 70
2019-11-13 21:00:00 6.6 9 Oeste 15 Oeste 0 -- -- 73
2019-11-13 20:00:00 7.2 6 Sudoeste 18 Oeste 0 -- -- 71
2019-11-13 19:00:00 8.4 2 Norte 13 Sudoeste 0 -- -- 68
2019-11-13 18:00:00 10.9 5 Oeste 21 Oeste 0 -- -- 61
2019-11-13 17:00:00 13.4 13 Noroeste 33 Oeste 0 -- -- 55
2019-11-13 16:00:00 14.6 19 Oeste 33 Sudoeste 0 -- -- 55
2019-11-13 15:00:00 15.4 18 Sudoeste 32 Sudoeste 0 -- -- 58
2019-11-13 14:00:00 14.6 19 Sudoeste 26 Sudoeste 0 -- -- 61
2019-11-13 13:00:00 13.7 7 Sudoeste 20 Sudoeste 0 -- -- 61
2019-11-13 12:00:00 13.4 9 Oeste 23 Noroeste 0 -- -- 60
2019-11-13 11:00:00 12.3 13 Norte 26 Norte 0 -- -- 67
2019-11-13 10:00:00 10.9 8 Nordeste 19 Norte 0 -- -- 77
2019-11-13 09:00:00 9.3 13 Norte 22 Norte 0 -- -- 82
2019-11-13 08:00:00 8.8 13 Nordeste 26 Norte 0 -- -- 84
2019-11-13 07:00:00 8.5 7 Noroeste 13 Noroeste 0 -- -- 87
2019-11-13 06:00:00 10.3 7 Noroeste 38 Noroeste 0 -- -- 80
2019-11-13 05:00:00 10.3 10 Noroeste 21 Oeste 0 -- -- 90
2019-11-13 04:00:00 10.1 9 Sudoeste 13 Sudoeste 1 -- -- 95
2019-11-13 03:00:00 10.3 4 Oeste 19 Sudoeste 0.2 -- -- 94
2019-11-13 02:00:00 10.1 6 Noroeste 27 Sudoeste 2.2 -- -- 95
2019-11-13 01:00:00 9.5 12 Sudoeste 28 Sudoeste 1 -- -- 95
2019-11-13 00:00:00 9.3 19 Sudoeste 33 Sudoeste 0.4 -- -- 93
2019-11-12 23:00:00 8.9 13 Sudoeste 26 Sudoeste 0 -- -- 93
2019-11-12 22:00:00 8.3 6 Oeste 24 Sudoeste 0.2 -- -- 93
2019-11-12 21:00:00 8 13 Sudoeste 23 Sudoeste 0.8 -- -- 93
2019-11-12 20:00:00 7.9 7 Sudoeste 26 Sudoeste 1.2 -- -- 92
2019-11-12 19:00:00 8 16 Sudoeste 33 Sudoeste 0.2 -- -- 91
2019-11-12 18:00:00 8.8 23 Sudoeste 43 Sudoeste 0 -- -- 80
2019-11-12 17:00:00 9.3 25 Sudoeste 40 Sudoeste 0 -- -- 76
2019-11-12 16:00:00 10.2 26 Sudoeste 36 Sudoeste 0 -- -- 72
2019-11-12 15:00:00 10.9 17 Sudoeste 27 Sudoeste 0 -- -- 65
2019-11-12 14:00:00 10.7 18 Sudoeste 28 Sudoeste 0 -- -- 62
2019-11-12 13:00:00 10.2 12 Sudoeste 21 Sudoeste 0 -- -- 60
2019-11-12 12:00:00 9.9 12 Sudoeste 20 Oeste 0 -- -- 59
2019-11-12 11:00:00 9.1 9 Sudoeste 17 Sudoeste 0 -- -- 63
2019-11-12 10:00:00 5.8 0 Calma 6 Este 0 -- -- 78
2019-11-12 09:00:00 4 3 Sur 8 Oeste 0 -- -- 85
2019-11-12 08:00:00 3.5 0 Calma 7 Oeste 0 -- -- 81
2019-11-12 07:00:00 4 6 Noroeste 12 Oeste 0 -- -- 80
2019-11-12 06:00:00 4.4 3 Noroeste 6 Sudoeste 0 -- -- 81
2019-11-12 05:00:00 5 0 Calma 10 Oeste 0 -- -- 76
2019-11-12 04:00:00 4.9 2 Oeste 10 Oeste 0 -- -- 76
2019-11-12 03:00:00 5.2 8 Oeste 18 Noroeste 0 -- -- 73
2019-11-12 02:00:00 6.1 11 Noroeste 26 Noroeste 0 -- -- 64
2019-11-12 01:00:00 4.7 14 Noroeste 18 Noroeste 0 -- -- 75
2019-11-12 00:00:00 4.4 5 Nordeste 9 Norte 0 -- -- 75